Time;durP1;ratioP1;P1;durP2;ratioP2;P2;SDS_P1;SDS_P2;PMS_P1;PMS_P2;Temp;Humidity;BMP_temperature;BMP_pressure;BME280_temperature;BME280_humidity;BME280_pressure;Samples;Min_cycle;Max_cycle;Signal;HPM_P1;HPM_P2
2023/02/25 00:01:25;;;;;;;5.23;4.47;;;;;;;3.60;68.20;97519.88;5059403;28;20048;-63
2023/02/25 00:03:52;;;;;;;5.47;3.73;;;;;;;3.55;68.26;97512.50;5042809;28;20036;-65
2023/02/25 00:06:18;;;;;;;5.57;4.03;;;;;;;3.27;68.50;97511.19;5076133;28;20391;-64
2023/02/25 00:08:44;;;;;;;4.33;3.37;;;;;;;3.62;68.60;97502.97;5026154;28;20048;-64
2023/02/25 00:11:11;;;;;;;6.63;4.07;;;;;;;3.57;68.41;97509.72;5059331;28;20040;-63
2023/02/25 00:13:39;;;;;;;9.70;5.63;;;;;;;3.59;68.44;97511.19;5059006;28;20115;-65
2023/02/25 00:16:05;;;;;;;5.93;4.23;;;;;;;3.49;68.48;97507.88;5042490;28;20040;-62
2023/02/25 00:18:31;;;;;;;7.50;3.20;;;;;;;3.30;68.90;97489.88;5059084;28;20579;-63
2023/02/25 00:20:58;;;;;;;4.50;3.97;;;;;;;3.39;68.68;97497.59;5042748;28;20055;-64
2023/02/25 00:23:24;;;;;;;5.07;4.57;;;;;;;3.54;68.65;97494.31;5059315;28;20071;-64
2023/02/25 00:25:58;;;;;;;11.47;4.00;;;;;;;3.89;69.45;97497.31;5059133;28;20048;-64
2023/02/25 00:28:24;;;;;;;6.73;4.53;;;;;;;3.45;68.71;97488.22;5059272;28;20098;-64
2023/02/25 00:30:50;;;;;;;7.20;4.07;;;;;;;3.39;68.74;97484.47;5042185;28;20108;-64
2023/02/25 00:33:16;;;;;;;4.53;3.57;;;;;;;3.44;68.77;97487.41;5058879;28;20126;-63
2023/02/25 00:35:42;;;;;;;5.50;4.23;;;;;;;3.44;68.54;97484.78;5042365;28;20040;-63
2023/02/25 00:38:08;;;;;;;6.17;4.30;;;;;;;3.38;69.02;97459.22;5059120;28;20047;-64
2023/02/25 00:40:38;;;;;;;7.67;4.87;;;;;;;3.78;69.61;97458.31;5058641;28;20528;-65
2023/02/25 00:43:03;;;;;;;6.13;3.97;;;;;;;3.41;68.90;97468.56;5058513;28;20043;-65
2023/02/25 00:45:29;;;;;;;9.13;4.80;;;;;;;3.58;69.18;97470.19;5042253;28;20380;-67
2023/02/25 00:47:56;;;;;;;3.83;3.20;;;;;;;3.55;68.84;97474.94;5042238;28;20032;-63
2023/02/25 00:50:22;;;;;;;4.43;3.63;;;;;;;3.49;68.72;97473.78;5058451;28;20040;-65
2023/02/25 00:52:47;;;;;;;8.10;4.87;;;;;;;3.42;69.20;97467.56;5041911;28;20071;-64
2023/02/25 00:55:14;;;;;;;5.13;4.40;;;;;;;3.41;69.26;97464.13;5038403;28;20083;-64
2023/02/25 00:57:42;;;;;;;3.50;2.90;;;;;;;3.60;69.36;97460.31;5021803;28;20044;-63
2023/02/25 01:00:14;;;;;;;9.10;5.30;;;;;;;3.85;69.29;97461.06;5038596;28;20040;-65
2023/02/25 01:02:41;;;;;;;6.77;3.70;;;;;;;3.77;69.29;97459.28;5039091;28;20044;-64
2023/02/25 01:05:09;;;;;;;4.00;3.53;;;;;;;3.83;69.02;97458.63;5054845;28;20044;-64
2023/02/25 01:07:35;;;;;;;9.10;4.40;;;;;;;3.66;68.69;97461.47;5054995;28;20044;-64
2023/02/25 01:10:00;;;;;;;5.50;4.33;;;;;;;3.60;69.19;97459.53;5038481;28;20047;-64
2023/02/25 01:12:26;;;;;;;6.17;3.27;;;;;;;3.61;69.29;97455.91;5055071;28;20384;-64
2023/02/25 01:14:54;;;;;;;5.57;4.53;;;;;;;4.04;69.37;97451.00;5037751;28;20086;-65
2023/02/25 01:17:21;;;;;;;4.57;3.83;;;;;;;3.76;69.02;97451.59;5071439;28;20083;-63
2023/02/25 01:19:47;;;;;;;4.27;3.63;;;;;;;3.82;69.15;97448.28;5038254;28;20052;-64
2023/02/25 01:22:13;;;;;;;7.00;4.13;;;;;;;3.85;68.77;97451.41;5054938;28;20135;-65
2023/02/25 01:24:39;;;;;;;4.33;3.77;;;;;;;3.79;68.80;97446.00;5037928;28;20044;-64
2023/02/25 01:27:06;;;;;;;8.53;4.23;;;;;;;3.91;68.84;97447.25;5071181;28;20468;-65
2023/02/25 01:29:37;;;;;;;6.33;4.07;;;;;;;4.07;68.84;97447.22;5038363;28;20048;-65
2023/02/25 01:32:06;;;;;;;7.35;4.82;;;;;;;4.09;68.94;97440.78;5038164;28;20098;-65
2023/02/25 01:34:32;;;;;;;5.27;4.23;;;;;;;3.80;68.64;97439.78;5037878;28;20050;-64
2023/02/25 01:37:01;;;;;;;12.07;3.53;;;;;;;4.04;68.78;97437.06;5055160;28;20112;-63
2023/02/25 01:39:28;;;;;;;4.63;3.30;;;;;;;4.09;68.42;97440.00;5054442;28;20442;-65
2023/02/25 01:41:55;;;;;;;4.30;3.33;;;;;;;4.15;68.45;97439.31;5087619;28;20045;-64
2023/02/25 01:44:31;;;;;;;6.13;3.97;;;;;;;4.18;69.19;97420.56;5071071;28;20427;-65
2023/02/25 01:46:57;;;;;;;3.37;3.07;;;;;;;3.88;68.54;97437.94;5054313;28;20396;-65
2023/02/25 01:49:29;;;;;;;7.37;4.80;;;;;;;4.37;69.23;97425.38;5021199;28;20044;-64
2023/02/25 01:52:23;;;;;;;7.60;3.63;;;;;;;4.28;69.43;97426.41;5054103;28;20094;-64
2023/02/25 01:54:53;;;;;;;3.10;2.83;;;;;;;4.26;68.93;97426.59;5035292;28;20052;-63
2023/02/25 01:57:19;;;;;;;7.90;4.90;;;;;;;4.06;69.04;97424.56;5054282;28;20062;-65
2023/02/25 01:59:46;;;;;;;4.43;3.77;;;;;;;4.07;68.91;97431.47;5037584;28;20040;-64
2023/02/25 02:02:13;;;;;;;4.03;3.63;;;;;;;4.19;69.20;97428.28;5037299;28;20476;-65
2023/02/25 02:04:39;;;;;;;4.63;2.77;;;;;;;3.95;68.92;97423.13;5037512;28;20476;-63
2023/02/25 02:07:06;;;;;;;4.53;3.80;;;;;;;4.10;69.37;97425.84;5054179;28;20487;-65
2023/02/25 02:09:32;;;;;;;4.87;3.43;;;;;;;4.12;68.93;97422.06;5054460;28;20040;-65
2023/02/25 02:12:02;;;;;;;3.87;3.00;;;;;;;4.30;68.83;97420.03;5070788;28;20098;-64
2023/02/25 02:14:35;;;;;;;3.87;3.47;;;;;;;4.33;69.01;97418.84;5038613;28;20059;-62
2023/02/25 02:17:07;;;;;;;5.43;4.03;;;;;;;4.56;69.13;97424.94;5037748;28;20076;-64
2023/02/25 02:19:55;;;;;;;3.87;3.17;;;;;;;4.58;69.29;97420.34;5054369;28;20040;-64
2023/02/25 02:22:41;;;;;;;5.33;3.20;;;;;;;3.97;68.50;97412.44;5074714;28;20131;-65
2023/02/25 02:25:24;;;;;;;5.23;4.00;;;;;;;4.02;68.32;97413.59;5057753;28;20037;-66
2023/02/25 02:27:54;;;;;;;3.17;2.87;;;;;;;4.09;68.36;97413.72;5074432;28;20182;-65
2023/02/25 02:30:52;;;;;;;3.87;2.97;;;;;;;4.57;69.02;97403.75;5074602;28;20075;-65
2023/02/25 02:33:43;;;;;;;7.95;3.70;;;;;;;4.72;69.10;97411.72;5067514;28;20048;-65
2023/02/25 02:36:15;;;;;;;4.97;3.67;;;;;;;4.07;68.33;97413.91;5057683;28;20041;-65
2023/02/25 02:38:41;;;;;;;5.10;3.50;;;;;;;4.01;68.61;97395.38;5057740;28;20045;-64
2023/02/25 02:41:13;;;;;;;3.73;2.80;;;;;;;4.52;69.10;97402.66;5057454;28;20051;-66
2023/02/25 02:43:47;;;;;;;4.73;4.13;;;;;;;4.42;68.86;97409.91;5057529;28;20071;-65
2023/02/25 02:46:29;;;;;;;8.30;5.13;;;;;;;4.56;69.05;97393.41;5057643;28;20058;-64
2023/02/25 02:49:02;;;;;;;6.53;3.77;;;;;;;4.51;69.25;97408.88;5057509;28;20040;-65
2023/02/25 02:51:36;;;;;;;4.67;3.40;;;;;;;4.61;69.20;97399.75;5040831;28;20399;-65
2023/02/25 02:54:05;;;;;;;5.80;3.83;;;;;;;4.47;69.13;97403.16;5028793;28;20404;-65
2023/02/25 02:56:34;;;;;;;2.60;2.40;;;;;;;4.62;68.65;97405.84;5057475;28;20058;-65
2023/02/25 02:59:09;;;;;;;5.77;4.10;;;;;;;4.63;68.97;97397.78;5057232;28;20101;-64
2023/02/25 03:01:43;;;;;;;3.70;3.40;;;;;;;4.70;68.70;97400.53;5057798;28;20040;-65
2023/02/25 03:04:15;;;;;;;3.70;3.27;;;;;;;4.55;68.77;97383.91;5073977;28;20452;-64
2023/02/25 03:06:45;;;;;;;6.00;4.47;;;;;;;4.61;68.44;97396.34;5040425;28;20070;-64
2023/02/25 03:09:17;;;;;;;3.40;3.10;;;;;;;4.73;68.75;97397.56;5057303;28;20048;-64
2023/02/25 03:11:43;;;;;;;8.73;4.23;;;;;;;4.21;68.00;97391.34;5057168;28;20530;-65
2023/02/25 03:14:11;;;;;;;7.50;4.20;;;;;;;4.42;68.24;97386.28;5024159;28;20045;-65
2023/02/25 03:16:40;;;;;;;3.40;3.07;;;;;;;4.59;68.68;97386.00;5074089;28;20052;-63
2023/02/25 03:19:42;;;;;;;6.03;4.43;;;;;;;4.91;68.57;97393.63;5057455;28;20048;-65
2023/02/25 03:22:17;;;;;;;;;;;;;;;5.07;67.60;97388.22;4977757;28;20590;-64
2023/02/25 03:24:53;;;;;;;3.17;2.43;;;;;;;4.94;67.93;97381.94;5028974;28;19935;-64
2023/02/25 03:27:26;;;;;;;5.37;2.73;;;;;;;4.85;67.93;97390.88;5056769;28;20055;-64
2023/02/25 03:30:03;;;;;;;6.13;2.83;;;;;;;4.78;68.35;97384.72;5057171;28;20080;-64
2023/02/25 03:32:31;;;;;;;5.03;3.37;;;;;;;4.72;68.17;97385.41;5057129;28;20044;-64
2023/02/25 03:34:58;;;;;;;5.20;4.03;;;;;;;4.71;68.14;97386.38;5073269;28;20063;-64
2023/02/25 03:37:27;;;;;;;6.37;4.17;;;;;;;4.71;68.88;97395.09;5056714;28;20041;-63
2023/02/25 03:39:58;;;;;;;7.77;4.33;;;;;;;4.89;68.59;97379.00;5039933;28;20506;-64
2023/02/25 03:42:31;;;;;;;6.40;3.78;;;;;;;4.95;68.90;97384.38;5073140;28;20045;-64
2023/02/25 03:44:59;;;;;;;4.73;2.93;;;;;;;4.70;68.67;97364.56;5056413;28;20395;-63
2023/02/25 03:47:27;;;;;;;7.07;4.90;;;;;;;4.54;68.82;97372.56;5072861;28;20048;-62
2023/02/25 03:49:58;;;;;;;5.27;4.00;;;;;;;4.83;69.57;97374.44;5056396;28;20549;-63
2023/02/25 03:52:25;;;;;;;6.37;3.70;;;;;;;4.73;69.12;97373.91;5056453;28;20037;-61
2023/02/25 03:54:56;;;;;;;4.07;3.47;;;;;;;4.70;69.00;97382.97;5056709;28;20060;-63
2023/02/25 03:57:25;;;;;;;3.30;2.90;;;;;;;4.76;69.25;97379.63;5089584;28;20450;-62
2023/02/25 03:59:55;;;;;;;5.87;4.00;;;;;;;4.67;69.20;97377.22;5056267;28;20048;-64
2023/02/25 04:02:27;;;;;;;5.67;3.97;;;;;;;5.05;69.79;97376.25;5039948;28;20055;-63
2023/02/25 04:04:53;;;;;;;4.37;3.40;;;;;;;4.57;68.80;97382.72;5072632;28;20048;-63
2023/02/25 04:07:20;;;;;;;3.07;2.70;;;;;;;4.60;68.86;97374.47;5056154;28;20049;-63
2023/02/25 04:09:45;;;;;;;4.57;3.93;;;;;;;4.59;68.89;97377.28;5039512;28;20044;-64
2023/02/25 04:12:12;;;;;;;4.77;4.17;;;;;;;4.59;69.04;97374.66;5056084;28;20036;-63
2023/02/25 04:14:38;;;;;;;3.90;3.23;;;;;;;4.56;69.27;97372.38;5056079;28;20044;-62
2023/02/25 04:17:05;;;;;;;5.13;2.73;;;;;;;4.56;69.30;97362.69;5039096;28;20040;-64
2023/02/25 04:19:31;;;;;;;4.73;4.10;;;;;;;4.59;69.38;97362.34;5039177;28;20048;-63
2023/02/25 04:21:57;;;;;;;5.37;3.87;;;;;;;4.69;69.46;97370.78;5055983;28;20060;-64
2023/02/25 04:24:23;;;;;;;3.40;3.10;;;;;;;4.63;69.40;97381.19;5072242;28;20131;-64
2023/02/25 04:26:48;;;;;;;6.57;3.60;;;;;;;4.65;69.35;97380.03;5039182;28;20559;-64
2023/02/25 04:29:14;;;;;;;5.93;3.80;;;;;;;4.65;69.33;97374.78;5056016;28;20048;-64
2023/02/25 04:31:40;;;;;;;2.67;2.13;;;;;;;4.70;69.29;97372.44;5039266;28;20384;-63
2023/02/25 04:34:06;;;;;;;8.63;3.70;;;;;;;4.81;69.11;97379.09;5022357;28;20041;-64
2023/02/25 04:36:33;;;;;;;4.53;4.10;;;;;;;5.07;69.45;97388.22;5055476;28;20182;-64
2023/02/25 04:39:03;;;;;;;6.73;4.57;;;;;;;5.07;69.41;97372.44;5038812;28;20055;-63
2023/02/25 04:41:30;;;;;;;4.13;3.57;;;;;;;5.00;69.87;97375.94;5071903;28;20116;-62
2023/02/25 04:43:57;;;;;;;5.97;4.20;;;;;;;4.85;70.23;97383.00;5055041;28;20044;-63
2023/02/25 04:46:23;;;;;;;4.83;3.60;;;;;;;4.71;69.85;97376.69;5055305;28;20487;-63
2023/02/25 04:48:48;;;;;;;5.30;4.00;;;;;;;4.84;69.78;97379.53;5038694;28;20048;-65
2023/02/25 04:51:14;;;;;;;4.87;4.37;;;;;;;4.85;69.66;97383.81;5038584;28;20044;-63
2023/02/25 04:53:40;;;;;;;6.43;3.77;;;;;;;4.92;69.60;97379.47;5038596;28;20450;-64
2023/02/25 04:56:07;;;;;;;5.13;3.13;;;;;;;5.22;69.82;97386.44;5055057;28;20043;-63
2023/02/25 04:58:34;;;;;;;8.70;3.63;;;;;;;5.11;69.67;97383.41;5038532;28;20044;-64
2023/02/25 05:01:02;;;;;;;5.23;3.73;;;;;;;5.16;69.87;97383.72;5071721;28;20044;-63
2023/02/25 05:03:28;;;;;;;4.57;3.33;;;;;;;4.98;70.08;97388.47;5054879;28;20096;-64
2023/02/25 05:05:54;;;;;;;4.77;3.57;;;;;;;5.08;70.08;97399.56;5038282;28;20047;-63
2023/02/25 05:08:20;;;;;;;4.57;3.00;;;;;;;5.14;70.46;97391.78;5055287;28;20060;-63
2023/02/25 05:10:46;;;;;;;7.70;4.10;;;;;;;5.04;70.28;97398.28;5021623;28;20388;-64
2023/02/25 05:13:12;;;;;;;5.63;3.43;;;;;;;4.96;70.58;97378.16;5038654;28;20044;-63
2023/02/25 05:15:38;;;;;;;6.10;3.73;;;;;;;5.08;71.02;97379.34;5021797;28;20101;-62
2023/02/25 05:18:04;;;;;;;4.27;3.10;;;;;;;5.12;70.79;97388.50;5021761;28;20036;-64
2023/02/25 05:20:29;;;;;;;4.13;3.30;;;;;;;5.08;71.02;97397.75;5038214;28;20139;-62
2023/02/25 05:22:55;;;;;;;4.83;4.20;;;;;;;5.14;70.85;97404.09;5038110;28;20147;-63
2023/02/25 05:25:21;;;;;;;4.53;3.70;;;;;;;5.26;70.75;97386.88;5038011;28;20037;-64
2023/02/25 05:27:47;;;;;;;5.43;4.53;;;;;;;5.18;70.68;97395.69;5037859;28;20040;-64
2023/02/25 05:30:13;;;;;;;5.43;3.90;;;;;;;5.36;70.87;97400.63;5054704;28;20044;-63
2023/02/25 05:32:39;;;;;;;3.47;2.90;;;;;;;5.31;70.74;97402.97;5054568;28;20048;-62
2023/02/25 05:35:07;;;;;;;8.57;3.60;;;;;;;5.46;70.98;97398.53;5071025;28;20435;-64
2023/02/25 05:37:34;;;;;;;3.67;3.30;;;;;;;5.50;70.90;97396.34;5054518;28;20048;-63
2023/02/25 05:40:00;;;;;;;4.67;3.60;;;;;;;5.35;71.06;97401.59;5054536;28;20456;-63
2023/02/25 05:42:27;;;;;;;4.13;3.73;;;;;;;5.54;70.74;97408.16;5054510;28;20131;-63
2023/02/25 05:44:52;;;;;;;3.20;2.90;;;;;;;5.40;70.37;97399.25;5037966;28;20131;-63
2023/02/25 05:47:18;;;;;;;5.10;4.10;;;;;;;5.49;70.25;97400.00;5054097;28;20135;-63
2023/02/25 05:49:44;;;;;;;3.33;3.03;;;;;;;5.48;69.88;97401.81;5038164;28;20072;-63
2023/02/25 05:52:12;;;;;;;4.87;3.90;;;;;;;5.88;70.18;97422.44;5054346;28;20480;-64
2023/02/25 05:54:38;;;;;;;4.87;3.50;;;;;;;5.54;69.58;97402.88;5046729;28;20064;-63
2023/02/25 05:57:04;;;;;;;3.80;3.20;;;;;;;5.67;69.61;97416.25;5025370;28;20037;-63
2023/02/25 05:59:30;;;;;;;4.03;3.43;;;;;;;5.78;69.57;97419.22;5058488;28;20048;-64
2023/02/25 06:01:56;;;;;;;3.67;3.30;;;;;;;5.67;69.26;97417.06;5075064;28;20055;-64
2023/02/25 06:04:22;;;;;;;4.83;3.13;;;;;;;5.76;69.18;97426.53;5041860;28;20040;-63
2023/02/25 06:06:49;;;;;;;3.33;2.60;;;;;;;5.66;69.61;97422.53;5041734;28;20047;-64
2023/02/25 06:09:18;;;;;;;5.00;3.47;;;;;;;6.10;70.19;97429.44;5058511;28;20400;-63
2023/02/25 06:11:46;;;;;;;3.90;3.00;;;;;;;6.02;69.47;97408.47;5058322;28;20475;-62
2023/02/25 06:14:12;;;;;;;3.93;2.93;;;;;;;5.76;69.13;97409.88;5074697;28;20041;-64
2023/02/25 06:16:38;;;;;;;4.60;3.17;;;;;;;5.97;69.60;97408.19;5057905;28;20044;-63
2023/02/25 06:19:05;;;;;;;3.23;2.50;;;;;;;5.83;69.63;97408.19;5041441;28;20414;-64
2023/02/25 06:21:32;;;;;;;3.17;2.87;;;;;;;6.03;69.57;97402.19;5074960;28;20051;-64
2023/02/25 06:23:59;;;;;;;4.10;3.17;;;;;;;6.00;69.70;97391.19;5058154;28;20066;-62
2023/02/25 06:26:25;;;;;;;3.17;2.87;;;;;;;5.83;69.55;97403.75;5074990;28;20070;-61
2023/02/25 06:28:51;;;;;;;4.87;3.43;;;;;;;5.73;70.00;97400.53;5074616;28;20126;-63
2023/02/25 06:31:18;;;;;;;5.07;2.87;;;;;;;6.11;70.17;97411.78;5041592;28;20399;-63
2023/02/25 06:33:45;;;;;;;2.80;2.50;;;;;;;6.17;69.76;97425.06;5074519;28;20484;-62
2023/02/25 06:36:11;;;;;;;3.73;2.63;;;;;;;6.12;68.88;97422.16;5057874;28;20114;-62
2023/02/25 06:38:37;;;;;;;3.23;2.40;;;;;;;6.14;68.55;97419.31;5057432;28;20049;-61
2023/02/25 06:41:08;;;;;;;3.03;2.73;;;;;;;6.53;68.90;97402.13;5041157;28;20071;-63
2023/02/25 06:43:35;;;;;;;4.17;2.63;;;;;;;6.45;68.29;97425.19;5041284;28;20387;-63
2023/02/25 06:46:09;;;;;;;2.57;2.37;;;;;;;6.78;68.40;97426.34;5040758;28;20102;-63
2023/02/25 06:48:35;;;;;;;3.73;3.37;;;;;;;6.33;67.46;97435.41;5074118;28;20124;-63
2023/02/25 06:51:01;;;;;;;3.27;2.97;;;;;;;6.36;67.73;97432.41;5057677;28;20132;-63
2023/02/25 06:53:28;;;;;;;3.07;2.70;;;;;;;6.51;67.70;97427.91;5060265;28;20060;-61
2023/02/25 06:55:54;;;;;;;4.67;3.50;;;;;;;6.49;67.68;97429.88;5044067;28;20405;-61
2023/02/25 06:58:20;;;;;;;3.87;3.47;;;;;;;6.43;67.51;97435.91;5060958;28;20074;-62
2023/02/25 07:00:46;;;;;;;5.07;3.20;;;;;;;6.50;67.64;97428.88;5061098;28;20067;-62
2023/02/25 07:03:12;;;;;;;3.67;2.90;;;;;;;6.61;68.04;97431.03;5060626;28;20055;-59
2023/02/25 07:05:38;;;;;;;4.53;3.50;;;;;;;6.53;67.84;97422.44;5043604;28;20482;-62
2023/02/25 07:08:04;;;;;;;2.93;2.53;;;;;;;6.58;67.74;97415.59;5060553;28;20036;-62
2023/02/25 07:10:30;;;;;;;4.27;3.47;;;;;;;6.57;67.37;97428.97;5060327;28;20047;-62
2023/02/25 07:12:56;;;;;;;3.60;2.87;;;;;;;6.57;67.38;97427.16;5060676;28;20048;-62
2023/02/25 07:15:24;;;;;;;3.47;2.63;;;;;;;6.97;67.88;97423.06;5043677;28;20044;-63
2023/02/25 07:17:52;;;;;;;3.43;2.83;;;;;;;6.58;67.55;97436.69;5043856;28;20047;-62
2023/02/25 07:20:25;;;;;;;3.70;2.80;;;;;;;7.12;68.09;97436.22;5077474;28;20038;-63
2023/02/25 07:22:51;;;;;;;4.60;2.67;;;;;;;6.69;67.48;97430.94;5044087;28;20063;-63
2023/02/25 07:25:18;;;;;;;3.43;2.97;;;;;;;6.67;66.89;97438.19;5043691;28;20507;-63
2023/02/25 07:27:43;;;;;;;2.60;2.40;;;;;;;6.76;67.05;97428.34;5094413;28;20428;-64
2023/02/25 07:30:12;;;;;;;3.03;2.73;;;;;;;6.83;67.34;97431.88;5043547;28;20211;-63
2023/02/25 07:32:39;;;;;;;8.50;3.23;;;;;;;6.92;67.39;97435.22;5043928;28;20476;-61
2023/02/25 07:35:05;;;;;;;8.40;3.50;;;;;;;6.83;67.56;97430.06;5076607;28;20054;-63
2023/02/25 07:37:31;;;;;;;4.17;2.93;;;;;;;6.79;67.30;97442.00;5059915;28;20055;-61
2023/02/25 07:39:58;;;;;;;4.13;3.80;;;;;;;6.72;67.79;97453.47;5043312;28;20044;-62
2023/02/25 07:42:27;;;;;;;4.13;2.77;;;;;;;7.12;68.67;97437.00;5043468;28;20121;-63
2023/02/25 07:44:57;;;;;;;6.63;2.53;;;;;;;6.69;68.55;97444.13;5060929;28;20130;-60
2023/02/25 07:47:23;;;;;;;4.40;2.90;;;;;;;6.73;68.83;97429.53;5059803;28;20138;-59
2023/02/25 07:49:48;;;;;;;4.70;3.00;;;;;;;6.73;68.86;97432.16;5043113;28;20059;-61
2023/02/25 07:52:14;;;;;;;3.90;3.07;;;;;;;6.70;69.22;97440.47;5042894;28;20039;-60
2023/02/25 07:54:40;;;;;;;3.67;2.73;;;;;;;6.76;69.22;97429.16;5036092;28;20056;-62
2023/02/25 07:57:06;;;;;;;3.93;3.33;;;;;;;6.75;69.55;97443.34;5019685;28;20047;-62
2023/02/25 07:59:32;;;;;;;5.40;3.10;;;;;;;6.68;69.56;97442.50;5036268;28;20068;-62
2023/02/25 08:01:59;;;;;;;4.93;2.80;;;;;;;6.82;69.33;97444.25;5052901;28;20063;-62
2023/02/25 08:04:26;;;;;;;5.73;3.60;;;;;;;6.75;69.58;97447.81;5019534;28;20083;-62
2023/02/25 08:06:52;;;;;;;4.50;2.83;;;;;;;6.76;69.60;97444.97;5036225;28;20033;-61
2023/02/25 08:09:18;;;;;;;5.83;2.80;;;;;;;6.77;69.52;97448.44;5036077;28;20532;-64
2023/02/25 08:11:45;;;;;;;5.63;3.53;;;;;;;6.73;69.86;97442.72;5036131;28;20060;-63
2023/02/25 08:14:11;;;;;;;4.47;3.43;;;;;;;6.68;70.38;97433.75;5019509;28;20477;-63
2023/02/25 08:16:37;;;;;;;7.53;3.40;;;;;;;6.82;70.62;97424.97;5019653;28;20086;-64
2023/02/25 08:19:04;;;;;;;5.13;3.13;;;;;;;6.85;70.82;97433.34;5035009;28;20052;-65
2023/02/25 08:21:31;;;;;;;4.17;3.00;;;;;;;6.92;70.93;97422.03;5035934;28;20044;-64
2023/02/25 08:23:57;;;;;;;5.87;2.50;;;;;;;6.81;71.09;97439.16;5035807;28;20041;-64
2023/02/25 08:26:24;;;;;;;3.40;2.67;;;;;;;6.97;70.80;97444.19;5069217;28;20066;-64
2023/02/25 08:28:50;;;;;;;3.97;2.60;;;;;;;6.93;70.68;97439.47;5052403;28;20033;-64
2023/02/25 08:31:16;;;;;;;5.03;3.00;;;;;;;6.89;70.69;97445.13;5019293;28;20051;-64
2023/02/25 08:33:48;;;;;;;4.80;2.93;;;;;;;7.10;70.99;97438.22;5051907;28;20040;-64
2023/02/25 08:36:19;;;;;;;3.60;2.77;;;;;;;7.19;71.25;97427.34;5036130;28;20037;-62
2023/02/25 08:38:45;;;;;;;3.77;2.87;;;;;;;6.87;70.61;97443.69;5052333;28;20045;-63
2023/02/25 08:41:11;;;;;;;8.67;3.43;;;;;;;7.04;70.47;97444.25;5035438;28;20131;-63
2023/02/25 08:43:38;;;;;;;7.93;3.67;;;;;;;7.10;70.28;97438.22;5035426;28;20041;-63
2023/02/25 08:46:05;;;;;;;6.27;3.83;;;;;;;7.03;70.00;97445.28;5018860;28;20135;-64
2023/02/25 08:48:31;;;;;;;12.13;3.97;;;;;;;7.06;70.07;97444.91;5035398;28;20052;-63
2023/02/25 08:51:08;;;;;;;7.93;4.40;;;;;;;7.48;70.23;97447.47;5035061;28;20366;-65
2023/02/25 08:53:38;;;;;;;7.00;4.50;;;;;;;7.24;69.86;97437.34;5059617;28;20388;-62
2023/02/25 08:56:05;;;;;;;5.00;3.75;;;;;;;7.20;69.71;97446.63;5092861;28;20052;-62
2023/02/25 08:58:31;;;;;;;9.87;4.47;;;;;;;7.08;69.87;97467.44;5041703;28;20048;-62
2023/02/25 09:00:57;;;;;;;11.37;4.87;;;;;;;6.90;69.80;97441.47;5075097;28;20044;-64
2023/02/25 09:03:23;;;;;;;6.67;4.33;;;;;;;6.95;69.77;97443.53;5042028;28;20544;-61
2023/02/25 09:05:53;;;;;;;8.33;4.10;;;;;;;7.36;70.21;97451.63;5041977;28;20559;-61
2023/02/25 09:08:19;;;;;;;9.80;4.40;;;;;;;7.10;69.68;97439.03;5058250;28;20040;-61
2023/02/25 09:10:45;;;;;;;6.77;4.30;;;;;;;7.13;70.26;97445.75;5041802;28;20079;-61
2023/02/25 09:13:11;;;;;;;3.10;2.80;;;;;;;7.01;69.96;97445.47;5041732;28;20051;-59
2023/02/25 09:15:37;;;;;;;6.70;3.23;;;;;;;7.12;69.64;97452.06;5025097;28;20036;-62
2023/02/25 09:18:03;;;;;;;13.27;4.10;;;;;;;7.23;69.15;97451.50;5074757;28;20050;-61
2023/02/25 09:20:28;;;;;;;11.13;3.77;;;;;;;7.20;69.12;97467.72;5041338;28;20058;-64
2023/02/25 09:22:54;;;;;;;6.93;4.67;;;;;;;7.17;69.25;97449.63;5041607;28;20036;-59
2023/02/25 09:25:20;;;;;;;6.83;4.53;;;;;;;7.24;68.88;97455.81;5057682;28;20045;-62
2023/02/25 09:27:46;;;;;;;20.23;4.70;;;;;;;7.21;69.08;97451.69;5041142;28;20043;-58
2023/02/25 09:30:12;;;;;;;7.80;4.70;;;;;;;7.45;68.64;97466.34;5074397;28;20040;-61
2023/02/25 09:32:38;;;;;;;9.13;5.03;;;;;;;7.29;68.67;97448.16;5074581;28;20096;-61
2023/02/25 09:35:04;;;;;;;6.03;4.13;;;;;;;7.48;68.68;97450.09;5057649;28;20040;-62
2023/02/25 09:37:29;;;;;;;8.40;4.87;;;;;;;7.44;68.02;97452.31;5041170;28;20189;-64
2023/02/25 09:39:56;;;;;;;9.00;5.67;;;;;;;7.54;68.02;97447.53;5041324;28;20436;-61
2023/02/25 09:42:24;;;;;;;8.30;5.40;;;;;;;7.86;68.19;97441.63;5041017;28;20035;-62
2023/02/25 09:44:52;;;;;;;12.60;6.13;;;;;;;7.75;67.91;97439.53;5074160;28;20038;-60
2023/02/25 09:47:47;;;;;;;17.77;5.70;;;;;;;8.16;68.29;97435.09;5058234;28;20495;-62
2023/02/25 09:50:20;;;;;;;8.13;5.10;;;;;;;7.99;67.55;97425.03;5073985;28;20090;-60
2023/02/25 09:53:06;;;;;;;9.07;5.00;;;;;;;8.36;67.41;97422.00;5058006;28;20044;-57
2023/02/25 09:55:37;;;;;;;5.87;3.93;;;;;;;8.24;67.44;97418.28;5073921;28;20070;-61
2023/02/25 09:58:10;;;;;;;7.53;5.47;;;;;;;8.36;67.11;97424.66;5041206;28;20472;-60
2023/02/25 10:00:47;;;;;;;11.10;4.70;;;;;;;8.26;67.68;97419.72;5057526;28;20046;-62
2023/02/25 10:03:24;;;;;;;8.43;5.47;;;;;;;8.28;66.74;97412.41;5057534;28;20151;-60
2023/02/25 10:06:02;;;;;;;9.97;4.53;;;;;;;8.43;66.76;97412.25;5057404;28;20063;-57
2023/02/25 10:08:45;;;;;;;7.87;4.70;;;;;;;8.37;66.60;97402.47;5057525;28;20117;-60
2023/02/25 10:11:15;;;;;;;8.50;5.17;;;;;;;8.13;66.52;97410.88;5040911;28;20040;-61
2023/02/25 10:13:53;;;;;;;9.07;4.40;;;;;;;8.38;66.47;97419.94;5057388;28;20544;-58
2023/02/25 10:16:37;;;;;;;7.53;4.23;;;;;;;7.95;65.88;97431.75;5074516;28;20529;-62
2023/02/25 10:19:18;;;;;;;8.33;4.90;;;;;;;8.51;66.04;97426.13;5057270;28;20101;-61
2023/02/25 10:22:13;;;;;;;6.75;3.47;;;;;;;8.71;65.23;97434.13;5074058;28;20044;-61
2023/02/25 10:24:45;;;;;;;6.80;3.53;;;;;;;8.50;65.33;97439.56;5073842;28;20102;-59
2023/02/25 10:27:14;;;;;;;4.83;3.50;;;;;;;8.62;65.21;97445.91;5057646;28;20044;-62
2023/02/25 10:29:45;;;;;;;9.27;3.70;;;;;;;8.48;64.62;97446.84;5073778;28;20056;-61
2023/02/25 10:32:26;;;;;;;6.47;4.30;;;;;;;8.66;64.77;97433.88;5074314;28;20062;-61
2023/02/25 10:35:00;;;;;;;4.97;3.28;;;;;;;8.46;65.09;97440.94;5040639;28;20380;-61
2023/02/25 10:37:32;;;;;;;9.73;3.70;;;;;;;8.47;64.90;97434.66;5073853;28;20082;-60
2023/02/25 10:39:59;;;;;;;5.67;3.80;;;;;;;8.35;64.70;97444.16;5091475;28;20569;-61
2023/02/25 10:42:25;;;;;;;7.20;4.00;;;;;;;8.20;64.42;97464.59;5060169;28;20040;-60
2023/02/25 10:44:51;;;;;;;6.80;3.90;;;;;;;8.07;65.02;97459.25;5077870;28;20058;-57
2023/02/25 10:47:25;;;;;;;10.70;4.13;;;;;;;8.26;65.19;97438.22;5061118;28;20093;-58
2023/02/25 10:50:12;;;;;;;6.27;4.50;;;;;;;8.67;65.14;97456.72;5061321;28;20070;-59
2023/02/25 10:53:15;;;;;;;10.07;4.43;;;;;;;8.56;64.91;97471.28;5060952;28;20044;-60
2023/02/25 10:55:50;;;;;;;11.40;5.73;;;;;;;8.41;64.83;97443.38;4961098;28;20497;-60
2023/02/25 10:58:22;;;;;;;6.80;4.37;;;;;;;8.48;64.68;97438.91;5064052;28;20052;-59
2023/02/25 11:01:20;;;;;;;5.20;4.40;;;;;;;8.64;64.39;97446.53;5077492;28;20108;-61
2023/02/25 11:03:53;;;;;;;9.90;5.90;;;;;;;8.68;64.90;97450.38;5059766;28;20083;-60
2023/02/25 11:06:24;;;;;;;6.57;4.50;;;;;;;8.57;64.38;97454.44;5060580;28;20048;-61
2023/02/25 11:08:51;;;;;;;5.28;4.35;;;;;;;8.32;64.58;97449.84;5077204;28;20135;-63
2023/02/25 11:11:26;;;;;;;11.47;5.20;;;;;;;8.51;64.95;97460.50;5060330;28;20082;-60
2023/02/25 11:14:05;;;;;;;12.73;5.70;;;;;;;8.61;65.10;97452.19;5094736;28;20051;-59
2023/02/25 11:16:34;;;;;;;12.20;5.70;;;;;;;8.60;64.19;97466.44;5077025;28;20419;-61
2023/02/25 11:19:03;;;;;;;9.03;5.53;;;;;;;8.55;64.02;97453.81;5077136;28;20399;-61
2023/02/25 11:21:33;;;;;;;8.47;5.60;;;;;;;8.77;63.53;97477.47;5060199;28;20044;-60
2023/02/25 11:24:01;;;;;;;13.60;5.33;;;;;;;8.59;63.58;97448.94;5076876;28;20044;-61
2023/02/25 11:26:31;;;;;;;10.23;5.40;;;;;;;8.28;62.91;97470.59;5059988;28;20115;-61
2023/02/25 11:29:00;;;;;;;9.88;5.65;;;;;;;8.72;63.36;97474.63;5043587;28;20047;-60
2023/02/25 11:31:47;;;;;;;7.67;5.40;;;;;;;8.96;63.24;97469.59;5059961;28;20163;-60
2023/02/25 11:34:23;;;;;;;18.37;6.27;;;;;;;8.87;63.41;97462.03;5043205;28;20047;-61
2023/02/25 11:36:48;;;;;;;8.80;5.23;;;;;;;8.30;63.32;97470.38;5059939;28;20380;-61
2023/02/25 11:39:20;;;;;;;12.97;5.80;;;;;;;8.76;63.97;97458.16;5076664;28;20036;-61
2023/02/25 11:41:49;;;;;;;8.70;6.37;;;;;;;8.66;63.61;97462.19;5094159;28;20386;-61
2023/02/25 11:44:15;;;;;;;13.03;5.27;;;;;;;8.37;63.00;97463.28;5076416;28;20044;-61
2023/02/25 11:46:43;;;;;;;7.67;5.30;;;;;;;8.67;64.39;97455.88;5076080;28;20113;-60
2023/02/25 11:49:09;;;;;;;9.47;4.93;;;;;;;8.28;63.27;97490.91;5059810;28;20383;-60
2023/02/25 11:51:51;;;;;;;8.43;5.47;;;;;;;8.91;63.86;97477.31;5076533;28;20082;-61